Time;durP1;ratioP1;P1;durP2;ratioP2;P2;SDS_P1;SDS_P2;PMS_P1;PMS_P2;Temp;Humidity;BMP_temperature;BMP_pressure;BME280_temperature;BME280_humidity;BME280_pressure;Samples;Min_cycle;Max_cycle;Signal;HPM_P1;HPM_P2
2021/06/04 00:01:04;;;;;;;;;;;;;;;16.32;99.30;101512.25;5072501;28;19948;-66
2021/06/04 00:03:30;;;;;;;;;;;;;;;16.19;100.00;101502.44;5071706;28;19924;-66
2021/06/04 00:05:56;;;;;;;;;;;;;;;16.07;100.00;101509.03;5071922;28;19940;-66
2021/06/04 00:08:23;;;;;;;;;;;;;;;15.97;100.00;101503.56;5071776;28;19925;-66
2021/06/04 00:10:51;;;;;;;;;;;;;;;15.89;100.00;101500.66;5072124;28;20309;-66
2021/06/04 00:13:20;;;;;;;;;;;;;;;15.83;100.00;101513.03;5071707;28;19925;-66
2021/06/04 00:15:47;;;;;;;;;;;;;;;15.76;100.00;101500.88;5053352;28;20053;-66
2021/06/04 00:18:14;;;;;;;;;;;;;;;15.70;100.00;101504.16;5072111;28;19931;-66
2021/06/04 00:20:40;;;;;;;;;;;;;;;15.68;100.00;101498.81;5071188;28;20000;-66
2021/06/04 00:23:06;;;;;;;;;;;;;;;15.64;100.00;101502.00;5037276;28;19928;-66
2021/06/04 00:25:32;;;;;;;;;;;;;;;15.58;100.00;101500.69;5071596;28;19939;-66
2021/06/04 00:27:58;;;;;;;;;;;;;;;15.51;100.00;101492.16;5072029;28;19928;-66
2021/06/04 00:30:26;;;;;;;;;;;;;;;15.48;100.00;101491.56;5054152;28;19925;-66
2021/06/04 00:32:51;;;;;;;;;;;;;;;15.43;100.00;101491.13;5053529;28;19929;-66
2021/06/04 00:35:19;;;;;;;;;;;;;;;15.40;100.00;101490.38;5071672;28;19924;-66
2021/06/04 00:37:45;;;;;;;;;;;;;;;15.40;100.00;101487.63;5071311;28;20452;-66
2021/06/04 00:40:12;;;;;;;;;;;;;;;15.44;100.00;101488.25;5053585;28;19925;-66
2021/06/04 00:42:39;;;;;;;;;;;;;;;15.45;100.00;101489.13;5053661;28;19935;-66
2021/06/04 00:45:08;;;;;;;;;;;;;;;15.44;100.00;101485.50;5053540;28;19931;-66
2021/06/04 00:47:34;;;;;;;;;;;;;;;15.46;100.00;101491.72;5071466;28;20307;-65
2021/06/04 00:50:00;;;;;;;;;;;;;;;15.47;100.00;101487.09;5071338;28;19930;-66
2021/06/04 00:52:29;;;;;;;;;;;;;;;15.45;100.00;101489.13;5053602;28;19959;-66
2021/06/04 00:54:57;;;;;;;;;;;;;;;15.48;100.00;101492.44;5053232;28;19932;-66
2021/06/04 00:57:24;;;;;;;;;;;;;;;15.54;100.00;101486.41;5071190;28;19929;-66
2021/06/04 00:59:50;;;;;;;;;;;;;;;15.57;100.00;101488.00;5071088;28;19940;-66
2021/06/04 01:02:22;;;;;;;;;;;;;;;15.62;100.00;101493.03;5052721;28;19975;-66
2021/06/04 01:04:49;;;;;;;;;;;;;;;15.67;100.00;101490.75;5053242;28;20027;-66
2021/06/04 01:07:19;;;;;;;;;;;;;;;15.74;100.00;101500.16;5070940;28;19924;-66
2021/06/04 01:09:58;;;;;;;;;;;;;;;15.78;100.00;101487.03;5053441;28;20292;-66
2021/06/04 01:12:38;;;;;;;;;;;;;;;15.82;100.00;101494.00;5053376;28;19924;-66
2021/06/04 01:15:07;;;;;;;;;;;;;;;15.84;100.00;101487.38;5070990;28;19942;-66
2021/06/04 01:17:43;;;;;;;;;;;;;;;15.89;100.00;101482.34;5052990;28;19924;-67
2021/06/04 01:20:13;;;;;;;;;;;;;;;15.92;100.00;101488.56;5053127;28;20042;-66
2021/06/04 01:22:54;;;;;;;;;;;;;;;15.94;100.00;101483.81;5053039;28;19947;-66
2021/06/04 01:25:32;;;;;;;;;;;;;;;15.94;100.00;101487.44;5070984;28;20395;-66
2021/06/04 01:28:05;;;;;;;;;;;;;;;15.97;100.00;101491.75;5053042;28;19924;-66
2021/06/04 01:30:35;;;;;;;;;;;;;;;15.95;100.00;101500.06;5053150;28;19935;-66
2021/06/04 01:33:04;;;;;;;;;;;;;;;15.94;100.00;101486.53;5052669;28;19925;-66
2021/06/04 01:35:36;;;;;;;;;;;;;;;15.93;100.00;101490.28;5052670;28;19974;-67
2021/06/04 01:38:03;;;;;;;;;;;;;;;15.95;100.00;101491.00;5035963;28;19931;-67
2021/06/04 01:40:32;;;;;;;;;;;;;;;15.95;100.00;101493.75;5053165;28;19963;-66
2021/06/04 01:43:03;;;;;;;;;;;;;;;15.95;100.00;101494.59;5052118;28;20281;-66
2021/06/04 01:45:33;;;;;;;;;;;;;;;15.97;100.00;101491.75;5053023;28;20305;-66
2021/06/04 01:48:09;;;;;;;;;;;;;;;16.01;100.00;101485.84;5052887;28;20314;-66
2021/06/04 01:50:40;;;;;;;;;;;;;;;16.03;100.00;101483.84;5052718;28;20388;-66
2021/06/04 01:53:10;;;;;;;;;;;;;;;16.08;100.00;101499.81;5052527;28;19924;-66
2021/06/04 01:55:41;;;;;;;;;;;;;;;16.10;100.00;101497.81;5052002;28;20035;-66
2021/06/04 01:58:10;;;;;;;;;;;;;;;16.11;100.00;101496.78;5036328;28;20325;-66
2021/06/04 02:00:40;;;;;;;;;;;;;;;16.12;100.00;101494.94;5052490;28;19924;-66
2021/06/04 02:03:11;;;;;;;;;;;;;;;16.15;100.00;101498.22;5052561;28;19960;-66
2021/06/04 02:05:50;;;;;;;;;;;;;;;16.15;100.00;101490.03;5052703;28;19963;-66
2021/06/04 02:08:20;;;;;;;;;;;;;;;16.16;100.00;101491.75;5052245;28;20454;-66
2021/06/04 02:10:50;;;;;;;;;;;;;;;16.17;100.00;101496.22;5070233;28;20457;-66
2021/06/04 02:13:18;;;;;;;;;;;;;;;16.19;100.00;101496.97;5069985;28;19932;-66
2021/06/04 02:16:02;;;;;;;;;;;;;;;16.19;100.00;101496.97;5056416;28;20443;-66
2021/06/04 02:18:40;;;;;;;;;;;;;;;16.20;100.00;101498.69;5056256;28;19990;-66
2021/06/04 02:21:20;;;;;;;;;;;;;;;16.16;100.00;101499.97;5056485;28;19986;-66
2021/06/04 02:23:52;;;;;;;;;;;;;;;16.13;100.00;101497.53;5056086;28;19928;-66
2021/06/04 02:26:24;;;;;;;;;;;;;;;16.12;100.00;101500.41;5055871;28;19970;-66
2021/06/04 02:28:53;;;;;;;;;;;;;;;16.10;100.00;101495.09;5074107;28;20280;-66
2021/06/04 02:31:22;;;;;;;;;;;;;;;16.09;100.00;101495.19;5055878;28;20015;-66
2021/06/04 02:33:51;;;;;;;;;;;;;;;16.08;100.00;101488.88;5056030;28;20324;-66
2021/06/04 02:36:19;;;;;;;;;;;;;;;16.09;100.00;101489.72;5073899;28;20472;-66
2021/06/04 02:38:48;;;;;;;;;;;;;;;16.08;100.00;101491.59;5055880;28;19931;-66
2021/06/04 02:41:17;;;;;;;;;;;;;;;16.11;100.00;101488.56;5073970;28;19932;-66
2021/06/04 02:43:47;;;;;;;;;;;;;;;16.13;100.00;101491.16;5055431;28;20440;-66
2021/06/04 02:46:14;;;;;;;;;;;;;;;16.19;100.00;101482.41;5073823;28;20284;-66
2021/06/04 02:48:42;;;;;;;;;;;;;;;16.20;100.00;101486.88;5055295;28;20018;-66
2021/06/04 02:51:11;;;;;;;;;;;;;;;16.22;100.00;101482.97;5055908;28;19925;-66
2021/06/04 02:53:39;;;;;;;;;;;;;;;16.23;100.00;101490.19;5073371;28;19924;-66
2021/06/04 02:56:14;;;;;;;;;;;;;;;16.23;100.00;101479.25;5055425;28;19925;-66
2021/06/04 02:58:44;;;;;;;;;;;;;;;16.21;100.00;101477.66;5073442;28;19925;-65
2021/06/04 03:01:13;;;;;;;;;;;;;;;16.20;100.00;101473.16;5055482;28;19928;-66
2021/06/04 03:03:42;;;;;;;;;;;;;;;16.21;100.00;101472.16;5055411;28;19932;-66
2021/06/04 03:06:08;;;;;;;;;;;;;;;16.26;100.00;101469.88;5055684;28;19932;-66
2021/06/04 03:08:35;;;;;;;;;;;;;;;16.29;100.00;101468.69;5054678;28;19967;-66
2021/06/04 03:11:05;;;;;;;;;;;;;;;16.31;100.00;101456.56;5073393;28;19986;-66
2021/06/04 03:13:32;;;;;;;;;;;;;;;16.36;100.00;101458.91;5072714;28;20399;-66
2021/06/04 03:16:00;;;;;;;;;;;;;;;16.42;100.00;101458.31;5055462;28;19982;-66
2021/06/04 03:18:31;;;;;;;;;;;;;;;16.45;100.00;101458.03;5073243;28;19947;-66
2021/06/04 03:20:59;;;;;;;;;;;;;;;16.50;99.76;101457.56;5054977;28;19924;-66
2021/06/04 03:23:35;;;;;;;;;;;;;;;16.54;98.61;101459.00;5055139;28;19924;-66
2021/06/04 03:26:05;;;;;;;;;;;;;;;16.57;98.57;101456.84;5072312;28;19928;-66
2021/06/04 03:28:33;;;;;;;;;;;;;;;16.60;98.44;101458.44;5038221;28;19970;-66
2021/06/04 03:30:59;;;;;;;;;;;;;;;16.62;98.14;101452.81;5072710;28;19935;-65
2021/06/04 03:33:27;;;;;;;;;;;;;;;16.64;97.95;101454.41;5054909;28;19946;-66
2021/06/04 03:35:58;;;;;;;;;;;;;;;16.64;98.25;101454.41;5054896;28;19924;-66
2021/06/04 03:38:25;;;;;;;;;;;;;;;16.66;97.74;101451.50;5054690;28;19924;-66
2021/06/04 03:40:55;;;;;;;;;;;;;;;16.66;98.33;101446.03;5054964;28;19924;-66
2021/06/04 03:43:23;;;;;;;;;;;;;;;16.67;98.55;101439.53;5072046;28;19924;-66
2021/06/04 03:45:50;;;;;;;;;;;;;;;16.67;98.11;101434.06;5072544;28;19962;-66
2021/06/04 03:48:17;;;;;;;;;;;;;;;16.67;98.46;101440.38;5054665;28;19931;-66
2021/06/04 03:50:44;;;;;;;;;;;;;;;16.70;98.13;101444.72;5072210;28;19928;-66
2021/06/04 03:53:11;;;;;;;;;;;;;;;16.70;97.64;101442.84;5072513;28;20407;-66
2021/06/04 03:55:38;;;;;;;;;;;;;;;16.74;97.31;101440.66;5072037;28;20376;-66
2021/06/04 03:58:04;;;;;;;;;;;;;;;16.78;97.58;101441.25;5072476;28;19924;-67
2021/06/04 04:00:33;;;;;;;;;;;;;;;16.78;97.36;101436.59;5072423;28;19932;-66
2021/06/04 04:02:59;;;;;;;;;;;;;;;16.82;96.76;101445.41;5071653;28;20399;-66
2021/06/04 04:05:25;;;;;;;;;;;;;;;16.86;96.15;101438.63;5054232;28;19932;-66
2021/06/04 04:07:51;;;;;;;;;;;;;;;16.89;97.37;101444.72;5071609;28;19935;-67
2021/06/04 04:10:20;;;;;;;;;;;;;;;16.94;98.71;101441.50;5072190;28;19924;-66
2021/06/04 04:12:47;;;;;;;;;;;;;;;16.99;95.68;101449.28;5071729;28;19971;-66
2021/06/04 04:15:17;;;;;;;;;;;;;;;17.02;94.93;101441.66;5071958;28;19931;-66
2021/06/04 04:17:43;;;;;;;;;;;;;;;17.03;96.40;101447.97;5071938;28;19970;-67
2021/06/04 04:20:09;;;;;;;;;;;;;;;17.03;98.25;101446.09;5071426;28;19981;-66
2021/06/04 04:22:37;;;;;;;;;;;;;;;17.02;97.37;101440.75;5071982;28;20153;-66
2021/06/04 04:25:04;;;;;;;;;;;;;;;16.99;99.80;101449.28;5053744;28;19924;-66
2021/06/04 04:27:31;;;;;;;;;;;;;;;16.95;98.81;101442.38;5077015;28;19984;-65
2021/06/04 04:29:58;;;;;;;;;;;;;;;16.91;97.83;101436.31;5060302;28;19947;-65
2021/06/04 04:32:24;;;;;;;;;;;;;;;16.93;98.39;101433.44;5080559;28;19924;-66
2021/06/04 04:34:51;;;;;;;;;;;;;;;16.94;98.53;101432.41;5056338;28;19925;-66
2021/06/04 04:37:18;;;;;;;;;;;;;;;16.95;99.34;101434.16;5069820;28;19932;-66
2021/06/04 04:39:45;;;;;;;;;;;;;;;16.96;98.94;101436.75;5069074;28;20015;-66
2021/06/04 04:42:13;;;;;;;;;;;;;;;16.97;99.66;101440.34;5070344;28;19954;-66
2021/06/04 04:44:42;;;;;;;;;;;;;;;16.93;100.00;101431.56;5053847;28;19960;-66
2021/06/04 04:47:09;;;;;;;;;;;;;;;16.92;100.00;101432.56;5071482;28;19924;-66
2021/06/04 04:49:35;;;;;;;;;;;;;;;16.88;100.00;101439.34;5072777;28;19951;-66
2021/06/04 04:52:01;;;;;;;;;;;;;;;16.84;100.00;101436.03;5072552;28;19998;-65
2021/06/04 04:54:27;;;;;;;;;;;;;;;16.79;100.00;101432.84;5070623;28;19924;-64
2021/06/04 04:56:53;;;;;;;;;;;;;;;16.74;100.00;101441.53;5064922;28;19925;-64
2021/06/04 04:59:19;;;;;;;;;;;;;;;16.74;100.00;101446.13;5091657;28;19924;-64
2021/06/04 05:01:46;;;;;;;;;;;;;;;16.73;100.00;101445.28;5090980;28;19924;-65
2021/06/04 05:04:12;;;;;;;;;;;;;;;16.72;100.00;101445.44;5091355;28;20022;-65
2021/06/04 05:06:38;;;;;;;;;;;;;;;16.72;100.00;101448.19;5056402;28;19924;-64
2021/06/04 05:09:05;;;;;;;;;;;;;;;16.74;100.00;101454.38;5068436;28;20447;-65
2021/06/04 05:11:31;;;;;;;;;;;;;;;16.72;100.00;101467.38;5067883;28;19928;-66
2021/06/04 05:13:57;;;;;;;;;;;;;;;16.70;100.00;101477.59;5070129;28;19935;-65
2021/06/04 05:16:23;;;;;;;;;;;;;;;16.73;100.00;101472.69;5071313;28;20284;-65
2021/06/04 05:18:50;;;;;;;;;;;;;;;16.74;100.00;101459.84;5052923;28;19974;-65
2021/06/04 05:21:17;;;;;;;;;;;;;;;16.74;100.00;101462.59;5070657;28;20030;-65
2021/06/04 05:23:44;;;;;;;;;;;;;;;16.73;100.00;101445.28;5070531;28;20425;-65
2021/06/04 05:26:10;;;;;;;;;;;;;;;16.71;100.00;101441.81;5052673;28;20077;-64
2021/06/04 05:28:38;;;;;;;;;;;;;;;16.69;100.00;101443.84;5069488;28;19924;-64
2021/06/04 05:31:06;;;;;;;;;;;;;;;16.72;100.00;101442.69;5052331;28;20035;-65
2021/06/04 05:33:35;;;;;;;;;;;;;;;16.72;100.00;101448.19;5054977;28;19935;-65
2021/06/04 05:36:04;;;;;;;;;;;;;;;16.73;100.00;101453.50;5070843;28;19931;-65
2021/06/04 05:38:30;;;;;;;;;;;;;;;16.75;100.00;101456.09;5089761;28;19924;-65
2021/06/04 05:40:56;;;;;;;;;;;;;;;16.75;100.00;101453.38;5076595;28;19955;-67
2021/06/04 05:43:23;;;;;;;;;;;;;;;16.77;100.00;101453.22;5061363;28;20257;-66
2021/06/04 05:45:51;;;;;;;;;;;;;;;16.78;100.00;101453.06;5046721;28;19928;-67
2021/06/04 05:48:17;;;;;;;;;;;;;;;16.82;100.00;101460.00;5073152;28;19924;-64
2021/06/04 05:50:44;;;;;;;;;;;;;;;16.84;100.00;101457.97;5070488;28;20355;-63
2021/06/04 05:53:14;;;;;;;;;;;;;;;16.86;100.00;101461.44;5070492;28;19925;-63
2021/06/04 05:55:40;;;;;;;;;;;;;;;16.93;100.00;101459.00;5074398;28;19934;-64
2021/06/04 05:58:08;;;;;;;;;;;;;;;17.03;100.00;101470.78;5056630;28;20339;-64
2021/06/04 06:00:35;;;;;;;;;;;;;;;17.08;100.00;101473.09;5087633;28;19932;-64
2021/06/04 06:03:02;;;;;;;;;;;;;;;17.11;100.00;101480.16;5075514;28;19924;-64
2021/06/04 06:05:28;;;;;;;;;;;;;;;17.08;100.00;101475.81;5083782;28;19928;-63
2021/06/04 06:07:54;;;;;;;;;;;;;;;17.04;100.00;101474.41;5077453;28;19967;-64
2021/06/04 06:10:22;;;;;;;;;;;;;;;17.07;100.00;101474.94;5082103;28;19928;-65
2021/06/04 06:12:48;;;;;;;;;;;;;;;17.03;100.00;101469.91;5072899;28;19928;-65
2021/06/04 06:15:14;;;;;;;;;;;;;;;16.97;100.00;101467.75;5073961;28;19924;-66
2021/06/04 06:17:40;;;;;;;;;;;;;;;16.87;100.00;101474.09;5081106;28;19956;-65
2021/06/04 06:20:07;;;;;;;;;;;;;;;16.90;100.00;101478.47;5060394;28;19978;-65
2021/06/04 06:22:33;;;;;;;;;;;;;;;16.93;100.00;101482.78;5074779;28;19924;-66
2021/06/04 06:24:59;;;;;;;;;;;;;;;16.88;100.00;101486.81;5075185;28;19962;-65
2021/06/04 06:27:26;;;;;;;;;;;;;;;16.88;100.00;101492.28;5065410;28;19924;-66
2021/06/04 06:29:52;;;;;;;;;;;;;;;16.88;100.00;101491.44;5073342;28;20035;-65
2021/06/04 06:32:20;;;;;;;;;;;;;;;16.92;100.00;101492.91;5071880;28;20391;-65
2021/06/04 06:34:46;;;;;;;;;;;;;;;16.93;100.00;101494.63;5058143;28;19924;-65
2021/06/04 06:37:12;;;;;;;;;;;;;;;16.88;100.00;101497.78;5073568;28;19936;-65
2021/06/04 06:39:38;;;;;;;;;;;;;;;16.89;100.00;101498.66;5061955;28;19970;-65
2021/06/04 06:42:06;;;;;;;;;;;;;;;16.93;100.00;101493.75;5084926;28;19928;-65
2021/06/04 06:44:33;;;;;;;;;;;;;;;16.88;100.00;101481.31;5087373;28;20353;-64
2021/06/04 06:47:00;;;;;;;;;;;;;;;16.89;100.00;101493.19;5075706;28;19931;-65
2021/06/04 06:49:26;;;;;;;;;;;;;;;16.86;100.00;101488.84;5073562;28;19924;-65
2021/06/04 06:51:53;;;;;;;;;;;;;;;16.85;100.00;101491.72;5080218;28;20406;-65
2021/06/04 06:54:20;;;;;;;;;;;;;;;16.85;100.00;101497.19;5067886;28;19924;-65
2021/06/04 06:56:48;;;;;;;;;;;;;;;16.80;100.00;101483.94;5071827;28;19932;-65
2021/06/04 06:59:14;;;;;;;;;;;;;;;16.79;100.00;101493.16;5074743;28;20342;-65
2021/06/04 07:01:41;;;;;;;;;;;;;;;16.72;100.00;101497.53;5053475;28;19924;-65
2021/06/04 07:04:07;;;;;;;;;;;;;;;16.66;100.00;101488.03;5066857;28;19925;-65
2021/06/04 07:06:35;;;;;;;;;;;;;;;16.60;100.00;101495.97;5073487;28;20253;-65
2021/06/04 07:09:01;;;;;;;;;;;;;;;16.53;100.00;101493.78;5079791;28;20015;-66
2021/06/04 07:11:30;;;;;;;;;;;;;;;16.48;100.00;101495.25;5093038;28;19924;-66
2021/06/04 07:13:58;;;;;;;;;;;;;;;16.42;100.00;101506.75;5088791;28;19936;-65
2021/06/04 07:16:24;;;;;;;;;;;;;;;16.37;100.00;101507.22;5072869;28;20357;-65
2021/06/04 07:18:52;;;;;;;;;;;;;;;16.35;100.00;101501.00;5075991;28;19929;-66
2021/06/04 07:21:20;;;;;;;;;;;;;;;16.36;100.00;101502.72;5086338;28;20118;-66
2021/06/04 07:23:47;;;;;;;;;;;;;;;16.34;100.00;101505.63;5084528;28;20245;-66
2021/06/04 07:26:13;;;;;;;;;;;;;;;16.36;100.00;101506.31;5073939;28;19935;-66
2021/06/04 07:28:39;;;;;;;;;;;;;;;16.41;100.00;101511.41;5071428;28;19969;-67
2021/06/04 07:31:10;;;;;;;;;;;;;;;16.47;100.00;101504.47;5071842;28;19924;-66
2021/06/04 07:33:37;;;;;;;;;;;;;;;16.52;100.00;101502.16;5072163;28;20387;-66
2021/06/04 07:36:06;;;;;;;;;;;;;;;16.57;100.00;101492.47;5053999;28;19933;-67
2021/06/04 07:38:32;;;;;;;;;;;;;;;16.65;100.00;101486.28;5079117;28;19935;-67
2021/06/04 07:40:58;;;;;;;;;;;;;;;16.73;100.00;101496.53;5072535;28;20342;-67
2021/06/04 07:43:25;;;;;;;;;;;;;;;16.74;100.00;101498.22;5071954;28;19978;-66
2021/06/04 07:45:51;;;;;;;;;;;;;;;16.74;100.00;101492.75;5072065;28;19928;-67
2021/06/04 07:48:19;;;;;;;;;;;;;;;16.79;100.00;101493.16;5086306;28;20429;-67
2021/06/04 07:50:46;;;;;;;;;;;;;;;16.88;100.00;101497.78;5052013;28;20287;-67
2021/06/04 07:53:15;;;;;;;;;;;;;;;16.92;100.00;101494.78;5081818;28;19928;-67
2021/06/04 07:55:41;;;;;;;;;;;;;;;16.96;100.00;101498.97;5091840;28;20317;-67
2021/06/04 07:58:07;;;;;;;;;;;;;;;17.06;100.00;101499.78;5072450;28;19947;-67
2021/06/04 08:00:34;;;;;;;;;;;;;;;17.15;100.00;101498.03;5072987;28;20253;-67
2021/06/04 08:03:01;;;;;;;;;;;;;;;17.24;100.00;101489.75;5083197;28;19928;-67
2021/06/04 08:05:27;;;;;;;;;;;;;;;17.36;100.00;101495.94;5073690;28;20003;-68
2021/06/04 08:07:53;;;;;;;;;;;;;;;17.33;100.00;101490.75;5071353;28;19942;-67
2021/06/04 08:10:21;;;;;;;;;;;;;;;17.33;100.00;101493.50;5071826;28;19960;-68
2021/06/04 08:12:47;;;;;;;;;;;;;;;17.27;100.00;101487.75;5071548;28;20439;-68
2021/06/04 08:15:14;;;;;;;;;;;;;;;17.34;100.00;101488.88;5076980;28;19928;-68
2021/06/04 08:17:41;;;;;;;;;;;;;;;17.30;100.00;101485.56;5073735;28;20282;-67
2021/06/04 08:20:10;;;;;;;;;;;;;;;17.35;100.00;101487.84;5054374;28;21814;-67
2021/06/04 08:22:38;;;;;;;;;;;;;;;17.43;100.00;101490.72;5071538;28;19932;-67
2021/06/04 08:25:04;;;;;;;;;;;;;;;17.60;100.00;101490.91;5076959;28;19924;-67
2021/06/04 08:27:31;;;;;;;;;;;;;;;17.82;100.00;101497.88;5073077;28;19924;-67
2021/06/04 08:29:57;;;;;;;;;;;;;;;18.06;100.00;101489.09;5074211;28;19936;-67
2021/06/04 08:32:22;;;;;;;;;;;;;;;18.33;100.00;101487.28;5077001;28;19929;-67
2021/06/04 08:34:48;;;;;;;;;;;;;;;18.57;100.00;101487.53;5065081;28;19990;-67
2021/06/04 08:37:14;;;;;;;;;;;;;;;18.69;100.00;101492.75;5071354;28;19932;-68
2021/06/04 08:39:43;;;;;;;;;;;;;;;18.91;100.00;101491.41;5074845;28;20261;-67
2021/06/04 08:42:28;;;;;;;;;;;;;;;19.22;100.00;101489.03;5073572;28;19931;-67
2021/06/04 08:45:02;;;;;;;;;;;;;;;19.01;100.00;101483.06;5064089;28;20358;-68
2021/06/04 08:47:31;;;;;;;;;;;;;;;18.95;100.00;101486.44;5068739;28;19940;-67
2021/06/04 08:50:12;;;;;;;;;;;;;;;18.92;100.00;101484.91;5052326;28;20429;-67
2021/06/04 08:52:41;;;;;;;;;;;;;;;19.02;100.00;101476.53;5065631;28;19925;-68
2021/06/04 08:55:13;;;;;;;;;;;;;;;19.05;100.00;101478.94;5077979;28;20482;-68
2021/06/04 08:57:44;;;;;;;;;;;;;;;19.09;100.00;101477.59;5072607;28;19925;-68
2021/06/04 09:00:13;;;;;;;;;;;;;;;19.20;100.00;101480.09;5074845;28;19982;-68
2021/06/04 09:02:40;;;;;;;;;;;;;;;19.40;100.00;101479.81;5087549;28;19924;-67
2021/06/04 09:05:10;;;;;;;;;;;;;;;19.63;100.00;101482.88;5070580;28;19969;-67
2021/06/04 09:07:37;;;;;;;;;;;;;;;19.61;100.00;101481.31;5053806;28;19928;-67
2021/06/04 09:10:08;;;;;;;;;;;;;;;19.77;100.00;101481.34;5072205;28;20388;-67
2021/06/04 09:12:37;;;;;;;;;;;;;;;20.00;100.00;101481.66;5070160;28;19924;-66
2021/06/04 09:15:05;;;;;;;;;;;;;;;20.21;100.00;101478.38;5084757;28;20066;-67
2021/06/04 09:17:39;;;;;;;;;;;;;;;20.40;100.00;101481.84;5090986;28;19924;-67
2021/06/04 09:20:07;;;;;;;;;;;;;;;20.50;100.00;101481.72;5080495;28;19933;-67
2021/06/04 09:22:35;;;;;;;;;;;;;;;20.74;100.00;101478.97;5089826;28;20413;-67
2021/06/04 09:25:01;;;;;;;;;;;;;;;20.77;98.92;101482.41;5055854;28;19924;-67
2021/06/04 09:27:29;;;;;;;;;;;;;;;20.76;97.81;101486.22;5070693;28;19940;-66
2021/06/04 09:30:12;;;;;;;;;;;;;;;20.56;97.14;101487.41;5071360;28;19981;-67
2021/06/04 09:32:42;;;;;;;;;;;;;;;20.57;100.00;101478.06;5073535;28;19924;-68
2021/06/04 09:35:09;;;;;;;;;;;;;;;20.49;99.67;101486.34;5070626;28;19925;-68
2021/06/04 09:37:37;;;;;;;;;;;;;;;20.48;100.00;101481.00;5078977;28;19931;-68
2021/06/04 09:40:12;;;;;;;;;;;;;;;20.33;100.00;101476.16;5089534;28;20011;-67
2021/06/04 09:42:47;;;;;;;;;;;;;;;20.19;100.00;101479.59;5076929;28;19925;-68
2021/06/04 09:45:13;;;;;;;;;;;;;;;20.13;100.00;101483.88;5071582;28;19982;-67
2021/06/04 09:47:42;;;;;;;;;;;;;;;20.09;100.00;101484.41;5070497;28;19986;-67
2021/06/04 09:50:29;;;;;;;;;;;;;;;20.07;100.00;101488.19;5073717;28;20381;-68
2021/06/04 09:53:08;;;;;;;;;;;;;;;20.16;100.00;101486.34;5061423;28;19928;-67
2021/06/04 09:55:34;;;;;;;;;;;;;;;20.26;100.00;101488.03;5075953;28;19963;-68
2021/06/04 09:58:03;;;;;;;;;;;;;;;20.18;100.00;101488.91;5088813;28;19928;-68
2021/06/04 10:00:29;;;;;;;;;;;;;;;19.99;100.00;101492.81;5088715;28;20043;-67
2021/06/04 10:03:06;;;;;;;;;;;;;;;19.81;100.00;101496.53;5090095;28;19978;-68
2021/06/04 10:05:33;;;;;;;;;;;;;;;19.78;100.00;101494.09;5082816;28;19925;-67
2021/06/04 10:07:59;;;;;;;;;;;;;;;19.70;100.00;101494.09;5074580;28;20364;-67
2021/06/04 10:10:28;;;;;;;;;;;;;;;19.74;100.00;101498.22;5072189;28;19924;-67
2021/06/04 10:12:58;;;;;;;;;;;;;;;19.77;100.00;101497.03;5083636;28;19982;-67
2021/06/04 10:15:26;;;;;;;;;;;;;;;19.75;100.00;101499.97;5069649;28;20362;-67
2021/06/04 10:18:03;;;;;;;;;;;;;;;19.71;100.00;101498.56;5075838;28;19924;-67
2021/06/04 10:20:50;;;;;;;;;;;;;;;19.75;100.00;101497.19;5088712;28;20307;-67
2021/06/04 10:23:21;;;;;;;;;;;;;;;19.63;100.00;101499.38;5073200;28;20406;-67
2021/06/04 10:25:49;;;;;;;;;;;;;;;19.70;100.00;101496.84;5069991;28;19935;-67
2021/06/04 10:28:33;;;;;;;;;;;;;;;19.83;100.00;101488.13;5083250;28;19954;-67
2021/06/04 10:31:02;;;;;;;;;;;;;;;20.02;100.00;101479.56;5083048;28;20023;-67
2021/06/04 10:33:34;;;;;;;;;;;;;;;20.17;100.00;101479.75;5070222;28;19932;-67
2021/06/04 10:36:01;;;;;;;;;;;;;;;20.17;100.00;101476.16;5074542;28;20419;-68
2021/06/04 10:38:32;;;;;;;;;;;;;;;20.30;100.00;101484.78;5053374;28;19924;-67
2021/06/04 10:40:59;;;;;;;;;;;;;;;20.34;100.00;101483.41;5080920;28;19924;-67
2021/06/04 10:43:43;;;;;;;;;;;;;;;20.53;100.00;101484.97;5093387;28;19934;-67
2021/06/04 10:46:14;;;;;;;;;;;;;;;20.58;100.00;101476.19;5060659;28;19947;-67
2021/06/04 10:48:45;;;;;;;;;;;;;;;20.62;99.82;101474.81;5085737;28;19928;-67
2021/06/04 10:51:15;;;;;;;;;;;;;;;20.68;100.00;101470.50;5059218;28;19925;-67
2021/06/04 10:53:47;;;;;;;;;;;;;;;20.74;100.00;101472.59;5071725;28;19925;-67
2021/06/04 10:56:17;;;;;;;;;;;;;;;20.72;100.00;101466.38;5075087;28;19928;-67
2021/06/04 10:58:45;;;;;;;;;;;;;;;20.78;100.00;101462.06;5093312;28;19947;-68
2021/06/04 11:01:13;;;;;;;;;;;;;;;20.87;100.00;101463.75;5064005;28;19962;-67
2021/06/04 11:03:50;;;;;;;;;;;;;;;20.89;100.00;101465.31;5068274;28;19928;-67
2021/06/04 11:06:19;;;;;;;;;;;;;;;20.95;100.00;101465.66;5075187;28;19925;-67
2021/06/04 11:09:00;;;;;;;;;;;;;;;21.04;100.00;101472.88;5074018;28;20026;-67
2021/06/04 11:11:34;;;;;;;;;;;;;;;21.12;100.00;101464.56;5050431;28;20311;-67
2021/06/04 11:14:11;;;;;;;;;;;;;;;20.89;100.00;101459.78;5052558;28;19956;-67
2021/06/04 11:16:41;;;;;;;;;;;;;;;20.69;100.00;101452.94;5071033;28;19924;-67
2021/06/04 11:19:12;;;;;;;;;;;;;;;20.72;100.00;101456.22;5077282;28;19939;-67
2021/06/04 11:21:40;;;;;;;;;;;;;;;20.75;100.00;101463.25;5073072;28;19925;-67
2021/06/04 11:24:08;;;;;;;;;;;;;;;20.75;100.00;101452.22;5078733;28;19931;-67
2021/06/04 11:26:37;;;;;;;;;;;;;;;20.85;100.00;101458.44;5084260;28;20446;-67
2021/06/04 11:29:05;;;;;;;;;;;;;;;20.97;100.00;101444.28;5076429;28;19958;-67
2021/06/04 11:31:36;;;;;;;;;;;;;;;21.00;100.00;101446.69;5081575;28;19924;-67
2021/06/04 11:34:05;;;;;;;;;;;;;;;21.04;98.89;101448.03;5076085;28;20398;-67
2021/06/04 11:36:32;;;;;;;;;;;;;;;21.05;98.25;101447.88;5072569;28;20380;-67
2021/06/04 11:39:00;;;;;;;;;;;;;;;21.23;98.32;101450.41;5076417;28;19935;-67
2021/06/04 11:41:33;;;;;;;;;;;;;;;21.47;99.71;101447.72;5075409;28;20323;-67
2021/06/04 11:44:05;;;;;;;;;;;;;;;21.77;97.01;101451.59;5056337;28;19932;-67
2021/06/04 11:46:32;;;;;;;;;;;;;;;21.89;92.16;101444.59;5084223;28;19924;-66
2021/06/04 11:49:00;;;;;;;;;;;;;;;21.94;89.68;101455.13;5079822;28;19971;-67
2021/06/04 11:51:30;;;;;;;;;;;;;;;21.98;91.90;101445.44;5072180;28;20363;-68
2021/06/04 11:54:11;;;;;;;;;;;;;;;21.83;89.86;101445.34;5088737;28;19931;-67
2021/06/04 11:56:41;;;;;;;;;;;;;;;21.78;90.80;101446.91;5091571;28;19955;-66
2021/06/04 11:59:11;;;;;;;;;;;;;;;21.85;92.44;101446.00;5075558;28;19924;-67
2021/06/04 12:01:47;;;;;;;;;;;;;;;21.95;92.63;101450.44;5060513;28;19936;-66
2021/06/04 12:04:14;;;;;;;;;;;;;;;22.06;90.48;101434.31;5072144;28;20383;-66
2021/06/04 12:06:52;;;;;;;;;;;;;;;21.98;89.17;101433.50;5080784;28;19924;-65
2021/06/04 12:09:36;;;;;;;;;;;;;;;21.97;89.80;101434.56;5051869;28;19952;-66
2021/06/04 12:12:17;;;;;;;;;;;;;;;22.05;90.40;101437.25;5071082;28;20353;-67
2021/06/04 12:15:04;;;;;;;;;;;;;;;22.35;90.79;101431.88;5087539;28;19924;-66
2021/06/04 12:17:31;;;;;;;;;;;;;;;22.21;86.60;101441.81;5076398;28;19924;-66
2021/06/04 12:20:15;;;;;;;;;;;;;;;22.41;87.76;101442.19;5089943;28;19977;-68
2021/06/04 12:22:43;;;;;;;;;;;;;;;22.64;86.00;101447.69;5078608;28;19978;-66
2021/06/04 12:25:10;;;;;;;;;;;;;;;22.95;85.68;101443.91;5073236;28;19925;-68
2021/06/04 12:27:53;;;;;;;;;;;;;;;22.95;82.39;101451.38;5071088;28;20433;-67
2021/06/04 12:30:38;;;;;;;;;;;;;;;23.16;89.44;101448.75;5083701;28;19924;-69
2021/06/04 12:33:05;;;;;;;;;;;;;;;23.03;81.99;101448.50;5078945;28;19928;-69
2021/06/04 12:35:41;;;;;;;;;;;;;;;23.36;84.24;101453.72;5071728;28;19925;-68
2021/06/04 12:38:29;;;;;;;;;;;;;;;23.60;81.55;101446.13;5076143;28;19924;-69